94NY weather

St Bernard Field
Union Springs, New York, United States

Public forecast

Using degrees Fahrenheit for public forecast. Weather courtesy of forecast.io.

METAR (pilot weather report)

Closest report is Penn Yan Airport, 19.5 nm (36.2 km) SW. Retrieved 2019/05/27 05:53 UTC (36 minutes ago):

KPEO 270553Z AUTO 24003KT 10SM CLR 15/08 A3000 RMK AO2 SLP153 T01500078 10189 20117 50003

TAF (pilot weather forecast)

Closest forecast is Ithaca Tompkins Regional Airport, 22.5 nm (41.7 km) SSE. Retrieved 2019/05/27 06:42 UTC (0 seconds ago):

TAF KITH 270539Z 2706/2806 VRB03KT P6SM FEW060 FM271600 32008KT P6SM SCT045 FM280000 02005KT P6SM BKN120